createdAt,value
2018-02-19T00:00:28.190Z,60.10
2018-02-19T00:01:04.735Z,57.50
2018-02-19T00:01:42.536Z,64.60
2018-02-19T00:02:17.975Z,60.80
2018-02-19T00:02:53.270Z,58.20
2018-02-19T00:03:28.679Z,64.20
2018-02-19T00:04:04.066Z,67.40
2018-02-19T00:04:39.980Z,61.30
2018-02-19T00:05:15.277Z,58.00
2018-02-19T00:05:51.707Z,64.50
2018-02-19T00:06:27.517Z,63.10
2018-02-19T00:07:03.027Z,58.70
2018-02-19T00:07:38.214Z,59.70
2018-02-19T00:08:13.638Z,68.60
2018-02-19T00:08:49.124Z,57.30
2018-02-19T00:09:24.560Z,55.20
2018-02-19T00:09:59.948Z,56.10
2018-02-19T00:10:35.379Z,57.50
2018-02-19T00:11:10.689Z,62.10
2018-02-19T00:11:45.707Z,62.90
2018-02-19T00:12:21.424Z,60.10
2018-02-19T00:12:57.442Z,59.60
2018-02-19T00:13:32.751Z,60.90
2018-02-19T00:14:08.193Z,57.80
2018-02-19T00:14:44.368Z,62.20
2018-02-19T00:15:19.726Z,60.60
2018-02-19T00:15:55.116Z,59.60
2018-02-19T00:16:30.257Z,66.50
2018-02-19T00:17:05.563Z,60.50
2018-02-19T00:17:40.881Z,64.60
2018-02-19T00:18:16.061Z,63.40
2018-02-19T00:18:51.689Z,58.70
2018-02-19T00:19:27.080Z,55.70
2018-02-19T00:20:02.583Z,54.50
2018-02-19T00:20:39.086Z,58.40
2018-02-19T00:21:14.576Z,53.60
2018-02-19T00:21:50.264Z,56.20
2018-02-19T00:22:25.491Z,66.60
2018-02-19T00:23:00.582Z,66.00
2018-02-19T00:23:35.815Z,61.80
2018-02-19T00:24:11.002Z,66.80
2018-02-19T00:24:46.342Z,67.00
2018-02-19T00:25:21.529Z,64.20
2018-02-19T00:25:57.252Z,61.70
2018-02-19T00:26:32.773Z,60.90
2018-02-19T00:27:08.107Z,59.20
2018-02-19T00:27:43.622Z,71.10
2018-02-19T00:28:19.240Z,66.80
2018-02-19T00:28:54.649Z,69.00
2018-02-19T00:29:30.000Z,70.70
2018-02-19T00:30:05.278Z,66.50
2018-02-19T00:30:41.105Z,63.20
2018-02-19T00:31:16.322Z,59.50
2018-02-19T00:31:51.851Z,62.50
2018-02-19T00:32:27.334Z,60.90
2018-02-19T00:33:02.752Z,60.60
2018-02-19T00:33:38.042Z,62.80
2018-02-19T00:34:13.460Z,68.10
2018-02-19T00:34:48.954Z,66.60
2018-02-19T00:35:24.491Z,62.60
2018-02-19T00:35:59.689Z,59.10
2018-02-19T00:36:35.265Z,60.90
2018-02-19T00:37:10.582Z,67.60
2018-02-19T00:37:45.908Z,68.30
2018-02-19T00:38:21.304Z,71.90
2018-02-19T00:38:56.322Z,76.60
2018-02-19T00:39:31.812Z,72.20
2018-02-19T00:40:07.141Z,68.30
2018-02-19T00:40:44.249Z,67.60
2018-02-19T00:41:19.667Z,68.80
2018-02-19T00:41:55.099Z,59.50
2018-02-19T00:42:30.314Z,61.40
2018-02-19T00:43:05.607Z,65.00
2018-02-19T00:43:41.323Z,65.50
2018-02-19T00:44:16.752Z,67.40
2018-02-19T00:44:52.076Z,66.10
2018-02-19T00:45:27.284Z,68.00
2018-02-19T00:46:04.621Z,75.10
2018-02-19T00:46:41.438Z,69.20
2018-02-19T00:47:16.806Z,66.30
2018-02-19T00:47:51.906Z,73.60
2018-02-19T00:48:27.159Z,71.20
2018-02-19T00:49:02.639Z,69.00
2018-02-19T00:49:37.758Z,70.80
2018-02-19T00:50:12.876Z,68.20
2018-02-19T00:50:48.924Z,67.50
2018-02-19T00:51:24.441Z,63.20
2018-02-19T00:52:00.178Z,70.00
2018-02-19T00:52:35.368Z,67.30
2018-02-19T00:53:10.990Z,64.30
2018-02-19T00:53:46.485Z,64.10
2018-02-19T00:54:21.826Z,69.10
2018-02-19T00:54:57.420Z,70.10
2018-02-19T00:55:33.049Z,62.00
2018-02-19T00:56:08.437Z,67.80
2018-02-19T00:56:44.387Z,71.10
2018-02-19T00:57:19.896Z,69.60
2018-02-19T00:57:55.318Z,67.20
2018-02-19T00:58:30.611Z,70.10
2018-02-19T00:59:05.841Z,70.10
2018-02-19T00:59:41.135Z,66.40
2018-02-19T01:00:16.674Z,67.10
2018-02-19T01:00:52.182Z,68.00
2018-02-19T01:01:27.406Z,66.90
2018-02-19T01:02:03.050Z,68.60
2018-02-19T01:02:38.265Z,65.80
2018-02-19T01:03:13.679Z,70.80
2018-02-19T01:03:49.109Z,72.80
2018-02-19T01:04:24.552Z,73.40
2018-02-19T01:05:00.069Z,73.50
2018-02-19T01:05:35.679Z,67.60
2018-02-19T01:06:11.123Z,65.60
2018-02-19T01:06:46.660Z,66.90
2018-02-19T01:07:22.188Z,71.50
2018-02-19T01:07:57.604Z,68.40
2018-02-19T01:08:33.035Z,68.70
2018-02-19T01:09:08.421Z,72.20
2018-02-19T01:09:44.345Z,72.50
2018-02-19T01:10:19.727Z,66.60
2018-02-19T01:10:55.247Z,65.80
2018-02-19T01:11:30.644Z,63.90
2018-02-19T01:12:05.875Z,64.30
2018-02-19T01:12:41.667Z,67.80
2018-02-19T01:13:16.877Z,62.20
2018-02-19T01:13:52.157Z,58.60
2018-02-19T01:14:27.502Z,63.40
2018-02-19T01:15:03.088Z,63.40
2018-02-19T01:15:40.088Z,67.50
2018-02-19T01:16:16.252Z,60.50
2018-02-19T01:16:51.614Z,71.50
2018-02-19T01:17:27.013Z,71.10
2018-02-19T01:18:02.342Z,67.30
2018-02-19T01:18:37.947Z,66.30
2018-02-19T01:19:13.613Z,66.20
2018-02-19T01:19:49.001Z,61.60
2018-02-19T01:20:24.218Z,58.40
2018-02-19T01:21:00.364Z,68.20
2018-02-19T01:21:35.655Z,68.30
2018-02-19T01:22:11.062Z,71.00
2018-02-19T01:22:47.456Z,66.50
2018-02-19T01:23:22.673Z,64.10
2018-02-19T01:23:58.183Z,59.80
2018-02-19T01:24:33.499Z,60.70
2018-02-19T01:25:08.814Z,65.90
2018-02-19T01:25:44.902Z,63.20
2018-02-19T01:26:20.303Z,61.10
2018-02-19T01:26:55.899Z,66.00
2018-02-19T01:27:31.310Z,65.80
2018-02-19T01:28:07.090Z,62.60
2018-02-19T01:28:42.607Z,63.30
2018-02-19T01:29:17.995Z,62.20
2018-02-19T01:29:53.335Z,67.70
2018-02-19T01:30:28.825Z,66.10
2018-02-19T01:31:03.939Z,64.90
2018-02-19T01:31:38.906Z,67.30
2018-02-19T01:32:14.339Z,60.00
2018-02-19T01:32:49.757Z,60.30
2018-02-19T01:33:25.078Z,63.80
2018-02-19T01:34:00.158Z,64.80
2018-02-19T01:34:35.756Z,61.10
2018-02-19T01:35:11.048Z,60.10
2018-02-19T01:35:46.861Z,62.40
2018-02-19T01:36:22.163Z,65.60
2018-02-19T01:36:58.105Z,67.30
2018-02-19T01:37:33.524Z,70.70
2018-02-19T01:38:08.920Z,65.30
2018-02-19T01:38:44.337Z,60.50
2018-02-19T01:39:19.757Z,65.90
2018-02-19T01:39:54.951Z,66.70
2018-02-19T01:40:30.152Z,65.10
2018-02-19T01:41:05.324Z,57.90
2018-02-19T01:41:40.756Z,60.90
2018-02-19T01:42:16.073Z,65.30
2018-02-19T01:42:51.800Z,61.40
2018-02-19T01:43:27.181Z,63.70
2018-02-19T01:44:02.687Z,62.80
2018-02-19T01:44:38.274Z,66.20
2018-02-19T01:45:13.685Z,65.60
2018-02-19T01:45:52.879Z,65.00
2018-02-19T01:46:28.377Z,64.90
2018-02-19T01:47:03.685Z,71.10
2018-02-19T01:47:39.041Z,70.60
2018-02-19T01:48:14.432Z,63.30
2018-02-19T01:48:49.651Z,60.30
2018-02-19T01:49:24.931Z,69.00
2018-02-19T01:50:00.637Z,63.10
2018-02-19T01:50:36.714Z,59.60
2018-02-19T01:51:12.210Z,61.40
2018-02-19T01:51:47.624Z,61.10
2018-02-19T01:52:22.949Z,67.60
2018-02-19T01:52:58.125Z,61.80
2018-02-19T01:53:33.643Z,58.10
2018-02-19T01:54:09.035Z,67.20
2018-02-19T01:54:44.889Z,67.60
2018-02-19T01:55:20.072Z,63.10
2018-02-19T01:55:55.485Z,58.50
2018-02-19T01:56:30.678Z,58.60
2018-02-19T01:57:05.880Z,58.30
2018-02-19T01:57:41.309Z,68.80
2018-02-19T01:58:16.536Z,71.60
2018-02-19T01:58:51.929Z,63.30
2018-02-19T01:59:27.342Z,64.30
2018-02-19T02:00:02.669Z,61.70
2018-02-19T02:00:39.080Z,63.10
2018-02-19T02:01:14.358Z,64.90
2018-02-19T02:01:49.789Z,63.10
2018-02-19T02:02:25.280Z,67.60
2018-02-19T02:03:00.806Z,66.70
2018-02-19T02:03:36.280Z,63.30
2018-02-19T02:04:11.580Z,64.70
2018-02-19T02:04:46.791Z,68.00
2018-02-19T02:05:22.085Z,66.80
2018-02-19T02:05:57.398Z,66.50
2018-02-19T02:06:32.904Z,63.50
2018-02-19T02:07:07.780Z,64.90
2018-02-19T02:07:43.935Z,63.40
2018-02-19T02:08:19.534Z,72.30
2018-02-19T02:08:55.057Z,65.90
2018-02-19T02:09:30.379Z,60.80
2018-02-19T02:10:05.730Z,58.20
2018-02-19T02:10:43.037Z,58.30
2018-02-19T02:11:18.658Z,68.10
2018-02-19T02:11:53.850Z,64.30
2018-02-19T02:12:29.106Z,65.20
2018-02-19T02:13:04.625Z,66.80
2018-02-19T02:13:39.977Z,63.50
2018-02-19T02:14:15.398Z,67.60
2018-02-19T02:14:50.449Z,64.10
2018-02-19T02:15:25.643Z,63.80
2018-02-19T02:16:03.170Z,64.20
2018-02-19T02:16:42.089Z,64.20
2018-02-19T02:17:17.720Z,65.30
2018-02-19T02:17:53.145Z,65.40
2018-02-19T02:18:28.482Z,65.50
2018-02-19T02:19:04.280Z,68.60
2018-02-19T02:19:39.652Z,59.90
2018-02-19T02:20:14.749Z,58.80
2018-02-19T02:20:50.210Z,68.00
2018-02-19T02:21:25.430Z,67.50
2018-02-19T02:22:00.973Z,65.60
2018-02-19T02:22:36.201Z,63.70
2018-02-19T02:23:11.649Z,58.10
2018-02-19T02:23:46.968Z,56.70
2018-02-19T02:24:22.327Z,56.30
2018-02-19T02:24:57.630Z,63.80
2018-02-19T02:25:32.992Z,64.50
2018-02-19T02:26:08.385Z,56.20
2018-02-19T02:26:44.612Z,61.80
2018-02-19T02:27:19.830Z,64.00
2018-02-19T02:27:55.097Z,64.40
2018-02-19T02:28:30.302Z,59.60
2018-02-19T02:29:05.671Z,57.90
2018-02-19T02:29:40.980Z,64.30
2018-02-19T02:30:16.156Z,63.80
2018-02-19T02:30:53.460Z,60.10
2018-02-19T02:31:28.786Z,62.30
2018-02-19T02:32:04.314Z,54.90
2018-02-19T02:32:39.543Z,54.40
2018-02-19T02:33:14.824Z,62.50
2018-02-19T02:33:50.362Z,65.10
2018-02-19T02:34:25.871Z,64.30
2018-02-19T02:35:01.368Z,72.80
2018-02-19T02:35:37.290Z,68.70
2018-02-19T02:36:12.943Z,61.90
2018-02-19T02:36:48.442Z,57.00
2018-02-19T02:37:23.671Z,59.50
2018-02-19T02:38:00.814Z,63.70
2018-02-19T02:38:36.073Z,61.90
2018-02-19T02:39:11.602Z,62.80
2018-02-19T02:39:46.632Z,67.10
2018-02-19T02:40:21.880Z,64.60
2018-02-19T02:40:57.143Z,58.00
2018-02-19T02:41:32.448Z,59.20
2018-02-19T02:42:07.706Z,59.70
2018-02-19T02:42:43.114Z,54.40
2018-02-19T02:43:18.524Z,57.40
2018-02-19T02:43:53.936Z,57.50
2018-02-19T02:44:29.280Z,58.20
2018-02-19T02:45:05.989Z,64.10
2018-02-19T02:45:41.930Z,62.40
2018-02-19T02:46:17.160Z,64.60
2018-02-19T02:46:52.593Z,64.20
2018-02-19T02:47:27.716Z,62.30
2018-02-19T02:48:03.091Z,61.70
2018-02-19T02:48:38.608Z,64.70
2018-02-19T02:49:14.249Z,59.00
2018-02-19T02:49:49.375Z,55.30
2018-02-19T02:50:24.596Z,64.30
2018-02-19T02:50:59.912Z,61.10
2018-02-19T02:51:35.149Z,60.90
2018-02-19T02:52:10.857Z,59.30
2018-02-19T02:52:47.285Z,62.20
2018-02-19T02:53:22.615Z,62.90
2018-02-19T02:53:57.857Z,62.20
2018-02-19T02:54:33.278Z,69.90
2018-02-19T02:55:08.601Z,66.10
2018-02-19T02:55:44.816Z,64.40
2018-02-19T02:56:20.059Z,63.70
2018-02-19T02:56:55.557Z,68.20
2018-02-19T02:57:30.760Z,63.70
2018-02-19T02:58:05.914Z,56.40
2018-02-19T02:58:41.449Z,53.10
2018-02-19T02:59:16.750Z,56.70
2018-02-19T02:59:52.309Z,58.10
2018-02-19T03:00:27.612Z,60.30
2018-02-19T03:01:03.343Z,68.70
2018-02-19T03:01:38.741Z,60.20
2018-02-19T03:02:13.981Z,59.50
2018-02-19T03:02:49.667Z,57.30
2018-02-19T03:03:25.026Z,63.40
2018-02-19T03:04:00.433Z,58.90
2018-02-19T03:04:36.061Z,60.70
2018-02-19T03:05:11.465Z,65.40
2018-02-19T03:05:46.871Z,65.00
2018-02-19T03:06:22.158Z,62.30
2018-02-19T03:06:57.502Z,60.40
2018-02-19T03:07:32.807Z,59.70
2018-02-19T03:08:08.158Z,57.40
2018-02-19T03:08:43.633Z,57.90
2018-02-19T03:09:18.969Z,59.60
2018-02-19T03:09:54.357Z,59.70
2018-02-19T03:10:29.686Z,65.00
2018-02-19T03:11:05.180Z,62.40
2018-02-19T03:11:40.639Z,60.10
2018-02-19T03:12:15.845Z,58.40
2018-02-19T03:12:51.182Z,54.60
2018-02-19T03:13:26.334Z,52.20
2018-02-19T03:14:01.976Z,57.90
2018-02-19T03:14:37.562Z,68.30
2018-02-19T03:15:13.197Z,63.90
2018-02-19T03:15:49.338Z,63.10
2018-02-19T03:16:24.584Z,65.40
2018-02-19T03:16:59.781Z,61.80
2018-02-19T03:17:35.210Z,62.40
2018-02-19T03:18:10.795Z,61.00
2018-02-19T03:18:46.333Z,63.40
2018-02-19T03:19:21.832Z,61.10
2018-02-19T03:19:57.043Z,55.50
2018-02-19T03:20:32.464Z,57.80
2018-02-19T03:21:07.888Z,62.30
2018-02-19T03:21:43.305Z,63.30
2018-02-19T03:22:18.640Z,64.40
2018-02-19T03:22:53.630Z,72.30
2018-02-19T03:23:28.989Z,61.30
2018-02-19T03:24:04.587Z,63.20
2018-02-19T03:24:41.058Z,60.40
2018-02-19T03:25:16.289Z,59.80
2018-02-19T03:25:51.499Z,63.20
2018-02-19T03:26:26.795Z,67.30
2018-02-19T03:27:02.237Z,61.50
2018-02-19T03:27:37.726Z,63.60
2018-02-19T03:28:13.274Z,63.80
2018-02-19T03:28:48.599Z,63.90
2018-02-19T03:29:24.030Z,62.80
2018-02-19T03:29:59.227Z,63.90
2018-02-19T03:30:34.769Z,63.60
2018-02-19T03:31:10.273Z,69.50
2018-02-19T03:31:45.606Z,65.50
2018-02-19T03:32:20.702Z,61.20
2018-02-19T03:32:56.061Z,67.10
2018-02-19T03:33:31.374Z,63.90
2018-02-19T03:34:07.111Z,70.00
2018-02-19T03:34:42.704Z,70.80
2018-02-19T03:35:18.132Z,67.10
2018-02-19T03:35:53.829Z,64.50
2018-02-19T03:36:29.068Z,66.30
2018-02-19T03:37:04.159Z,72.50
2018-02-19T03:37:39.591Z,80.90
2018-02-19T03:38:14.880Z,76.50
2018-02-19T03:38:50.022Z,70.20
2018-02-19T03:39:25.329Z,71.60
2018-02-19T03:40:00.734Z,73.60
2018-02-19T03:40:36.653Z,66.00
2018-02-19T03:41:11.993Z,66.30
2018-02-19T03:41:47.171Z,70.00
2018-02-19T03:42:22.501Z,72.30
2018-02-19T03:42:58.203Z,71.20
2018-02-19T03:43:33.553Z,62.60
2018-02-19T03:44:09.081Z,65.90
2018-02-19T03:44:44.523Z,66.30
2018-02-19T03:45:19.829Z,69.80
2018-02-19T03:45:55.382Z,73.10
2018-02-19T03:46:30.993Z,72.60
2018-02-19T03:47:06.717Z,74.00
2018-02-19T03:47:42.520Z,68.20
2018-02-19T03:48:18.249Z,63.10
2018-02-19T03:48:53.784Z,69.60
2018-02-19T03:49:29.274Z,76.30
2018-02-19T03:50:04.881Z,72.40
2018-02-19T03:50:43.109Z,66.90
2018-02-19T03:51:18.495Z,67.00
2018-02-19T03:51:53.527Z,63.50
2018-02-19T03:52:28.918Z,63.60
2018-02-19T03:53:04.159Z,63.30
2018-02-19T03:53:39.786Z,67.00
2018-02-19T03:54:15.153Z,68.00
2018-02-19T03:54:50.648Z,70.40
2018-02-19T03:55:26.157Z,72.50
2018-02-19T03:56:01.585Z,66.70
2018-02-19T03:56:37.107Z,70.00
2018-02-19T03:57:12.498Z,73.80
2018-02-19T03:57:47.851Z,74.50
2018-02-19T03:58:23.147Z,75.10
2018-02-19T03:58:58.818Z,76.00
2018-02-19T03:59:34.325Z,67.00
2018-02-19T04:00:09.528Z,68.60
2018-02-19T04:00:47.353Z,74.90
2018-02-19T04:01:22.577Z,73.60
2018-02-19T04:01:57.780Z,68.30
2018-02-19T04:02:32.898Z,66.80
2018-02-19T04:03:08.495Z,72.30
2018-02-19T04:03:44.938Z,74.20
2018-02-19T04:04:20.433Z,68.00
2018-02-19T04:04:56.061Z,70.60
2018-02-19T04:05:31.256Z,69.60
2018-02-19T04:06:06.572Z,74.80
2018-02-19T04:06:42.760Z,69.20
2018-02-19T04:07:18.190Z,65.30
2018-02-19T04:07:53.510Z,71.60
2018-02-19T04:08:28.843Z,74.60
2018-02-19T04:09:04.189Z,74.60
2018-02-19T04:09:40.049Z,71.70
2018-02-19T04:10:15.362Z,68.10
2018-02-19T04:10:52.396Z,72.60
2018-02-19T04:11:27.511Z,73.80
2018-02-19T04:12:03.173Z,73.40
2018-02-19T04:12:39.402Z,72.70
2018-02-19T04:13:14.966Z,69.80
2018-02-19T04:13:50.267Z,73.70
2018-02-19T04:14:25.340Z,72.00
2018-02-19T04:15:00.770Z,68.40
2018-02-19T04:15:36.831Z,70.30
2018-02-19T04:16:12.153Z,67.10
2018-02-19T04:16:47.593Z,78.40
2018-02-19T04:17:22.834Z,82.20
2018-02-19T04:17:58.073Z,67.50
2018-02-19T04:18:33.305Z,70.60
2018-02-19T04:19:08.779Z,73.00
2018-02-19T04:19:44.208Z,72.00
2018-02-19T04:20:19.948Z,70.10
2018-02-19T04:20:55.367Z,73.60
2018-02-19T04:21:31.008Z,77.40
2018-02-19T04:22:06.208Z,74.30
2018-02-19T04:22:41.259Z,66.70
2018-02-19T04:23:19.274Z,74.30
2018-02-19T04:23:54.855Z,74.60
2018-02-19T04:24:30.421Z,79.30
2018-02-19T04:25:06.181Z,74.50
2018-02-19T04:25:42.197Z,69.30
2018-02-19T04:26:17.534Z,69.80
2018-02-19T04:26:52.843Z,67.10
2018-02-19T04:27:28.168Z,65.30
2018-02-19T04:28:03.366Z,64.50
2018-02-19T04:28:38.703Z,66.60
2018-02-19T04:29:14.137Z,65.40
2018-02-19T04:29:49.560Z,61.90
2018-02-19T04:30:24.652Z,63.80
2018-02-19T04:31:00.892Z,62.20
2018-02-19T04:31:36.489Z,64.30
2018-02-19T04:32:11.947Z,63.70
2018-02-19T04:32:47.457Z,61.60
2018-02-19T04:33:22.790Z,61.60
2018-02-19T04:33:58.417Z,67.90
2018-02-19T04:34:33.639Z,68.10
2018-02-19T04:35:08.944Z,71.10
2018-02-19T04:35:44.574Z,68.50
2018-02-19T04:36:19.921Z,65.70
2018-02-19T04:36:55.142Z,66.10
2018-02-19T04:37:30.754Z,62.60
2018-02-19T04:38:06.094Z,59.60
2018-02-19T04:38:41.451Z,66.10
2018-02-19T04:39:16.908Z,69.70
2018-02-19T04:39:52.489Z,71.40
2018-02-19T04:40:27.726Z,71.40
2018-02-19T04:41:03.724Z,68.70
2018-02-19T04:41:39.158Z,64.00
2018-02-19T04:42:14.631Z,61.20
2018-02-19T04:42:49.965Z,62.90
2018-02-19T04:43:25.585Z,69.00
2018-02-19T04:44:01.004Z,67.20
2018-02-19T04:44:36.344Z,68.60
2018-02-19T04:45:12.663Z,66.90
2018-02-19T04:45:48.056Z,63.30
2018-02-19T04:46:23.492Z,62.00
2018-02-19T04:46:58.789Z,61.00
2018-02-19T04:47:34.325Z,59.30
2018-02-19T04:48:09.513Z,60.50
2018-02-19T04:48:45.660Z,69.80
2018-02-19T04:49:21.226Z,65.40
2018-02-19T04:49:56.652Z,64.40
2018-02-19T04:50:32.163Z,66.80
2018-02-19T04:51:07.692Z,63.40
2018-02-19T04:51:43.110Z,64.70
2018-02-19T04:52:18.736Z,68.40
2018-02-19T04:52:54.140Z,63.40
2018-02-19T04:53:29.493Z,62.00
2018-02-19T04:54:04.913Z,66.80
2018-02-19T04:54:40.272Z,68.80
2018-02-19T04:55:15.892Z,65.00
2018-02-19T04:55:51.235Z,63.70
2018-02-19T04:56:26.742Z,66.60
2018-02-19T04:57:02.073Z,67.00
2018-02-19T04:57:37.370Z,68.70
2018-02-19T04:58:12.833Z,75.70
2018-02-19T04:58:48.340Z,72.90
2018-02-19T04:59:23.706Z,72.10
2018-02-19T04:59:59.146Z,62.70
2018-02-19T05:00:34.776Z,65.20
2018-02-19T05:01:11.507Z,68.20
2018-02-19T05:01:47.260Z,66.70
2018-02-19T05:02:22.459Z,67.70
2018-02-19T05:02:57.795Z,71.70
2018-02-19T05:03:33.200Z,72.10
2018-02-19T05:04:08.618Z,73.70
2018-02-19T05:04:43.935Z,66.80
2018-02-19T05:05:19.459Z,69.50
2018-02-19T05:05:55.445Z,72.60
2018-02-19T05:06:31.217Z,69.20
2018-02-19T05:07:06.399Z,74.40
2018-02-19T05:07:41.713Z,71.10
2018-02-19T05:08:17.196Z,70.60
2018-02-19T05:08:53.711Z,72.70
2018-02-19T05:09:28.916Z,76.10
2018-02-19T05:10:04.266Z,72.80
2018-02-19T05:10:41.362Z,73.80
2018-02-19T05:11:16.782Z,74.40
2018-02-19T05:11:51.970Z,70.60
2018-02-19T05:12:27.197Z,76.10
2018-02-19T05:13:02.602Z,74.10
2018-02-19T05:13:37.937Z,70.60
2018-02-19T05:14:13.832Z,70.00
2018-02-19T05:14:50.585Z,69.30
2018-02-19T05:15:26.068Z,72.10
2018-02-19T05:16:01.300Z,74.30
2018-02-19T05:16:36.601Z,65.80
2018-02-19T05:17:12.050Z,66.00
2018-02-19T05:17:47.640Z,70.60
2018-02-19T05:18:23.271Z,73.80
2018-02-19T05:18:58.982Z,71.30
2018-02-19T05:19:34.414Z,71.30
2018-02-19T05:20:09.621Z,69.30
2018-02-19T05:20:46.836Z,68.70
2018-02-19T05:21:22.249Z,67.60
2018-02-19T05:21:57.171Z,71.50
2018-02-19T05:22:32.299Z,71.20
2018-02-19T05:23:07.429Z,70.80
2018-02-19T05:23:42.820Z,79.30
2018-02-19T05:24:18.344Z,76.20
2018-02-19T05:24:53.662Z,73.40
2018-02-19T05:25:29.077Z,76.50
2018-02-19T05:26:04.171Z,78.20
2018-02-19T05:26:39.303Z,77.50
2018-02-19T05:27:14.600Z,72.30
2018-02-19T05:27:49.916Z,75.50
2018-02-19T05:28:25.204Z,73.40
2018-02-19T05:29:00.451Z,68.30
2018-02-19T05:29:36.141Z,73.70
2018-02-19T05:30:11.680Z,75.10
2018-02-19T05:30:48.487Z,77.00
2018-02-19T05:31:24.168Z,77.40
2018-02-19T05:31:59.662Z,78.20
2018-02-19T05:32:35.085Z,78.40
2018-02-19T05:33:10.465Z,74.10
2018-02-19T05:33:45.785Z,71.70
2018-02-19T05:34:21.096Z,74.80
2018-02-19T05:34:56.530Z,83.50
2018-02-19T05:35:31.870Z,71.30
2018-02-19T05:36:07.427Z,70.00
2018-02-19T05:36:42.748Z,73.00
2018-02-19T05:37:17.783Z,74.90
2018-02-19T05:37:53.298Z,75.20
2018-02-19T05:38:28.625Z,78.70
2018-02-19T05:39:04.153Z,76.10
2018-02-19T05:39:39.483Z,70.30
2018-02-19T05:40:14.704Z,71.90
2018-02-19T05:40:50.344Z,73.60
2018-02-19T05:41:25.442Z,75.80
2018-02-19T05:42:00.788Z,76.20
2018-02-19T05:42:36.187Z,77.30
2018-02-19T05:43:11.933Z,79.70
2018-02-19T05:43:47.577Z,81.70
2018-02-19T05:44:23.014Z,81.90
2018-02-19T05:44:58.444Z,75.20
2018-02-19T05:45:33.909Z,80.20
2018-02-19T05:46:09.220Z,78.20
2018-02-19T05:46:45.137Z,71.10
2018-02-19T05:47:20.245Z,76.30
2018-02-19T05:47:55.799Z,76.20
2018-02-19T05:48:31.115Z,70.40
2018-02-19T05:49:06.243Z,73.30
2018-02-19T05:49:41.736Z,80.10
2018-02-19T05:50:17.405Z,82.10
2018-02-19T05:50:52.840Z,75.00
2018-02-19T05:51:28.263Z,72.20
2018-02-19T05:52:03.387Z,71.40
2018-02-19T05:52:39.202Z,76.70
2018-02-19T05:53:14.584Z,75.90
2018-02-19T05:53:50.044Z,79.50
2018-02-19T05:54:25.352Z,73.00
2018-02-19T05:55:00.584Z,70.40
2018-02-19T05:55:36.198Z,74.30
2018-02-19T05:56:11.511Z,74.00
2018-02-19T05:56:46.701Z,76.70
2018-02-19T05:57:21.940Z,74.20
2018-02-19T05:57:57.143Z,75.60
2018-02-19T05:58:32.464Z,71.00
2018-02-19T05:59:08.161Z,72.80
2018-02-19T05:59:43.613Z,72.60
2018-02-19T06:00:18.829Z,74.20
2018-02-19T06:00:55.302Z,73.80
2018-02-19T06:01:30.601Z,83.70
2018-02-19T06:02:06.013Z,86.30
2018-02-19T06:02:41.404Z,83.30
2018-02-19T06:03:16.626Z,74.00
2018-02-19T06:03:51.935Z,71.50
2018-02-19T06:04:27.659Z,76.60
2018-02-19T06:05:03.052Z,79.30
2018-02-19T06:05:38.400Z,72.90
2018-02-19T06:06:13.812Z,79.20
2018-02-19T06:06:49.150Z,86.40
2018-02-19T06:07:24.450Z,82.80
2018-02-19T06:07:59.870Z,78.60
2018-02-19T06:08:38.470Z,76.70
2018-02-19T06:09:13.696Z,79.40
2018-02-19T06:09:48.696Z,79.00
2018-02-19T06:10:24.051Z,81.80
2018-02-19T06:11:00.559Z,75.50
2018-02-19T06:11:35.910Z,74.10
2018-02-19T06:12:11.209Z,80.10
2018-02-19T06:12:47.048Z,79.80
2018-02-19T06:13:22.550Z,76.60
2018-02-19T06:13:57.769Z,73.60
2018-02-19T06:14:33.186Z,80.10
2018-02-19T06:15:12.420Z,82.10
2018-02-19T06:15:47.548Z,84.00
2018-02-19T06:16:23.091Z,83.40
2018-02-19T06:16:58.377Z,83.20
2018-02-19T06:17:33.804Z,87.70
2018-02-19T06:18:09.609Z,82.70
2018-02-19T06:18:45.937Z,78.40
2018-02-19T06:19:21.178Z,81.50
2018-02-19T06:19:56.482Z,84.60
2018-02-19T06:20:31.801Z,81.20
2018-02-19T06:21:07.249Z,85.30
2018-02-19T06:21:42.842Z,83.90
2018-02-19T06:22:18.364Z,78.90
2018-02-19T06:22:53.559Z,81.20
2018-02-19T06:23:29.275Z,82.00
2018-02-19T06:24:04.609Z,73.50
2018-02-19T06:24:41.043Z,79.60
2018-02-19T06:25:16.256Z,79.40
2018-02-19T06:25:53.721Z,81.40
2018-02-19T06:26:29.245Z,79.10
2018-02-19T06:27:04.783Z,79.10
2018-02-19T06:27:39.975Z,77.60
2018-02-19T06:28:15.106Z,79.30
2018-02-19T06:28:50.304Z,82.70
2018-02-19T06:29:25.797Z,80.00
2018-02-19T06:30:01.223Z,75.80
2018-02-19T06:30:37.749Z,79.70
2018-02-19T06:31:13.483Z,84.40
2018-02-19T06:31:48.846Z,78.80
2018-02-19T06:32:24.321Z,77.20
2018-02-19T06:32:59.775Z,73.20
2018-02-19T06:33:35.578Z,73.90
2018-02-19T06:34:11.249Z,78.30
2018-02-19T06:34:47.535Z,76.30
2018-02-19T06:35:22.901Z,81.30
2018-02-19T06:35:59.133Z,73.10
2018-02-19T06:36:34.880Z,77.00
2018-02-19T06:37:10.218Z,83.10
2018-02-19T06:37:45.882Z,82.90
2018-02-19T06:38:21.172Z,79.90
2018-02-19T06:38:56.721Z,78.60
2018-02-19T06:39:32.028Z,76.00
2018-02-19T06:40:07.432Z,82.30
2018-02-19T06:40:43.176Z,83.80
2018-02-19T06:41:18.729Z,83.30
2018-02-19T06:41:54.359Z,86.00
2018-02-19T06:42:29.605Z,86.70
2018-02-19T06:43:05.352Z,80.80
2018-02-19T06:43:40.801Z,83.40
2018-02-19T06:44:16.748Z,86.00
2018-02-19T06:44:52.421Z,86.10
2018-02-19T06:45:27.663Z,86.30
2018-02-19T06:46:03.051Z,84.10
2018-02-19T06:46:38.788Z,80.70
2018-02-19T06:47:14.144Z,82.40
2018-02-19T06:47:49.603Z,80.80
2018-02-19T06:48:25.197Z,89.10
2018-02-19T06:49:04.659Z,83.50
2018-02-19T06:49:42.732Z,86.30
2018-02-19T06:50:18.001Z,83.50
2018-02-19T06:50:55.159Z,85.90
2018-02-19T06:51:30.497Z,84.30
2018-02-19T06:52:09.254Z,83.30
2018-02-19T06:52:45.816Z,86.80
2018-02-19T06:53:21.558Z,88.60
2018-02-19T06:54:01.596Z,86.20
2018-02-19T06:54:38.239Z,85.60
2018-02-19T06:55:14.908Z,90.50
2018-02-19T06:55:55.584Z,87.50
2018-02-19T06:56:30.815Z,81.00
2018-02-19T06:57:06.375Z,76.70
2018-02-19T06:57:42.007Z,81.00
2018-02-19T06:58:17.458Z,83.40
2018-02-19T06:58:52.889Z,83.10
2018-02-19T06:59:28.428Z,86.20
2018-02-19T07:00:03.892Z,86.50
2018-02-19T07:00:42.656Z,82.40
2018-02-19T07:01:18.217Z,92.80
2018-02-19T07:01:53.557Z,86.00
2018-02-19T07:02:28.686Z,81.40
2018-02-19T07:03:04.111Z,85.60
2018-02-19T07:03:39.551Z,84.00
2018-02-19T07:04:14.894Z,83.80
2018-02-19T07:04:53.392Z,79.90
2018-02-19T07:05:29.038Z,83.60
2018-02-19T07:06:04.366Z,91.70
2018-02-19T07:06:42.892Z,90.20
2018-02-19T07:07:18.203Z,81.10
2018-02-19T07:07:53.523Z,91.30
2018-02-19T07:08:29.054Z,92.50
2018-02-19T07:09:05.074Z,86.90
2018-02-19T07:09:40.623Z,87.60
2018-02-19T07:10:16.032Z,86.30
2018-02-19T07:10:51.337Z,87.50
2018-02-19T07:11:26.905Z,93.10
2018-02-19T07:12:02.664Z,88.10
2018-02-19T07:12:38.072Z,81.90
2018-02-19T07:13:13.297Z,86.00
2018-02-19T07:13:48.686Z,85.20
2018-02-19T07:14:23.878Z,84.40
2018-02-19T07:14:59.272Z,83.70
2018-02-19T07:15:34.510Z,85.20
2018-02-19T07:16:10.383Z,81.40
2018-02-19T07:16:45.582Z,78.40
2018-02-19T07:17:20.862Z,83.20
2018-02-19T07:17:56.244Z,86.70
2018-02-19T07:18:31.690Z,85.90
2018-02-19T07:19:07.239Z,79.40
2018-02-19T07:19:43.229Z,81.60
2018-02-19T07:20:18.656Z,80.30
2018-02-19T07:20:55.551Z,79.70
2018-02-19T07:21:30.914Z,87.30
2018-02-19T07:22:06.349Z,87.60
2018-02-19T07:22:41.764Z,79.20
2018-02-19T07:23:17.111Z,79.00
2018-02-19T07:23:52.714Z,82.70
2018-02-19T07:24:28.470Z,81.60
2018-02-19T07:25:03.933Z,82.70
2018-02-19T07:25:39.138Z,76.40
2018-02-19T07:26:14.423Z,83.20
2018-02-19T07:26:49.745Z,82.50
2018-02-19T07:27:25.379Z,81.30
2018-02-19T07:28:00.702Z,80.90
2018-02-19T07:28:36.236Z,80.70
2018-02-19T07:29:11.648Z,82.00
2018-02-19T07:29:46.962Z,87.50
2018-02-19T07:30:22.340Z,91.50
2018-02-19T07:30:58.260Z,86.40
2018-02-19T07:31:33.603Z,82.90
2018-02-19T07:32:08.916Z,75.50
2018-02-19T07:32:44.625Z,71.10
2018-02-19T07:33:19.980Z,76.90
2018-02-19T07:33:55.385Z,79.50
2018-02-19T07:34:30.714Z,85.70
2018-02-19T07:35:06.265Z,88.10
2018-02-19T07:35:43.081Z,73.20
2018-02-19T07:36:18.734Z,78.20
2018-02-19T07:36:54.035Z,80.00
2018-02-19T07:37:29.582Z,76.40
2018-02-19T07:38:05.115Z,77.40